createdAt,value
2019-03-25T00:01:25.029Z,65.60
2019-03-25T00:04:33.639Z,65.03
2019-03-25T00:07:42.231Z,63.30
2019-03-25T00:10:50.729Z,62.50
2019-03-25T00:13:59.466Z,67.43
2019-03-25T00:17:08.088Z,72.93
2019-03-25T00:20:16.635Z,64.70
2019-03-25T00:23:25.171Z,65.07
2019-03-25T00:26:33.795Z,59.90
2019-03-25T00:29:42.313Z,68.27
2019-03-25T00:32:50.845Z,58.50
2019-03-25T00:35:59.383Z,61.63
2019-03-25T00:39:08.957Z,61.93
2019-03-25T00:42:17.525Z,69.47
2019-03-25T00:45:26.125Z,60.13
2019-03-25T00:48:34.643Z,63.70
2019-03-25T00:51:43.201Z,59.70
2019-03-25T00:54:51.757Z,55.77
2019-03-25T00:58:00.379Z,53.40
2019-03-25T01:01:08.981Z,75.17
2019-03-25T01:04:17.527Z,67.23
2019-03-25T01:07:26.008Z,67.00
2019-03-25T01:10:34.619Z,63.13
2019-03-25T01:13:43.245Z,69.67
2019-03-25T01:16:51.881Z,64.37
2019-03-25T01:20:00.404Z,70.60
2019-03-25T01:23:08.897Z,58.80
2019-03-25T01:26:17.441Z,56.00
2019-03-25T01:29:26.003Z,69.20
2019-03-25T01:32:34.584Z,68.37
2019-03-25T01:35:43.967Z,66.43
2019-03-25T01:38:52.488Z,62.37
2019-03-25T01:42:01.365Z,67.60
2019-03-25T01:45:10.092Z,77.13
2019-03-25T01:48:18.609Z,61.43
2019-03-25T01:51:27.125Z,69.20
2019-03-25T01:54:35.704Z,63.90
2019-03-25T01:57:44.215Z,68.93
2019-03-25T02:00:52.829Z,68.20
2019-03-25T02:04:01.333Z,74.87
2019-03-25T02:07:09.849Z,65.10
2019-03-25T02:10:18.449Z,59.27
2019-03-25T02:13:26.968Z,56.93
2019-03-25T02:16:37.256Z,60.83
2019-03-25T02:19:45.837Z,55.20
2019-03-25T02:22:54.519Z,59.77
2019-03-25T02:26:03.164Z,52.23
2019-03-25T02:29:11.646Z,56.00
2019-03-25T02:32:20.229Z,52.90
2019-03-25T02:35:28.779Z,54.73
2019-03-25T02:38:37.330Z,59.30
2019-03-25T02:41:46.273Z,52.70
2019-03-25T02:44:54.803Z,51.53
2019-03-25T02:48:03.398Z,49.27
2019-03-25T02:51:11.883Z,57.33
2019-03-25T02:54:20.387Z,51.13
2019-03-25T02:57:29.195Z,58.80
2019-03-25T03:00:39.301Z,53.77
2019-03-25T03:03:47.854Z,57.27
2019-03-25T03:06:56.436Z,74.00
2019-03-25T03:10:05.482Z,59.57
2019-03-25T03:13:14.055Z,61.40
2019-03-25T03:16:22.742Z,48.33
2019-03-25T03:19:31.323Z,59.43
2019-03-25T03:22:39.868Z,50.13
2019-03-25T03:25:57.398Z,46.50
2019-03-25T03:28:58.542Z,54.97
2019-03-25T03:32:07.071Z,53.13
2019-03-25T03:35:15.682Z,58.83
2019-03-25T03:38:24.391Z,58.57
2019-03-25T03:41:32.953Z,60.67
2019-03-25T03:44:41.478Z,51.03
2019-03-25T03:47:50.029Z,56.13
2019-03-25T03:50:58.872Z,57.33
2019-03-25T03:54:07.412Z,59.37
2019-03-25T03:57:16.197Z,61.53
2019-03-25T04:00:30.923Z,76.50
2019-03-25T04:03:40.495Z,78.40
2019-03-25T04:06:49.014Z,79.20
2019-03-25T04:09:57.478Z,57.50
2019-03-25T04:13:06.006Z,54.83
2019-03-25T04:16:14.530Z,65.47
2019-03-25T04:19:23.058Z,65.47
2019-03-25T04:22:31.547Z,65.27
2019-03-25T04:25:40.037Z,67.90
2019-03-25T04:28:48.573Z,71.00
2019-03-25T04:31:57.204Z,68.70
2019-03-25T04:35:05.885Z,83.67
2019-03-25T04:38:14.561Z,84.33
2019-03-25T04:41:23.076Z,86.17
2019-03-25T04:44:31.796Z,111.60
2019-03-25T04:47:40.445Z,89.47
2019-03-25T04:50:48.979Z,102.20
2019-03-25T04:53:58.608Z,84.93
2019-03-25T04:57:07.134Z,76.80
2019-03-25T05:00:15.780Z,76.90
2019-03-25T05:03:24.273Z,85.30
2019-03-25T05:06:32.816Z,98.57
2019-03-25T05:09:41.342Z,84.43
2019-03-25T05:12:49.942Z,92.40
2019-03-25T05:15:58.812Z,92.67
2019-03-25T05:19:07.330Z,80.50
2019-03-25T05:22:15.890Z,78.53
2019-03-25T05:25:24.395Z,71.30
2019-03-25T05:28:32.926Z,70.03
2019-03-25T05:31:41.441Z,66.30
2019-03-25T05:34:50.016Z,96.23
2019-03-25T05:37:58.528Z,94.23
2019-03-25T05:41:07.032Z,68.10
2019-03-25T05:44:15.863Z,59.77
2019-03-25T05:47:24.334Z,60.10
2019-03-25T05:50:32.900Z,58.37
2019-03-25T05:53:41.439Z,52.00
2019-03-25T05:56:49.957Z,51.70
2019-03-25T05:59:58.450Z,58.87
2019-03-25T06:03:07.008Z,50.97
2019-03-25T06:06:15.577Z,55.20
2019-03-25T06:09:24.243Z,54.43
2019-03-25T06:12:32.932Z,61.60
2019-03-25T06:15:41.456Z,52.67
2019-03-25T06:18:50.000Z,46.17
2019-03-25T06:21:58.654Z,52.70
2019-03-25T06:25:08.017Z,82.80
2019-03-25T06:28:16.550Z,55.53
2019-03-25T06:31:25.111Z,37.00
2019-03-25T06:34:33.738Z,42.87
2019-03-25T06:37:42.437Z,33.33
2019-03-25T06:40:51.018Z,66.63
2019-03-25T06:43:59.542Z,65.70
2019-03-25T06:47:08.093Z,36.40
2019-03-25T06:50:16.654Z,44.43
2019-03-25T06:53:25.201Z,38.77
2019-03-25T06:56:33.713Z,40.37
2019-03-25T06:59:42.376Z,52.13
2019-03-25T07:02:50.970Z,38.30
2019-03-25T07:05:59.534Z,40.50
2019-03-25T07:09:09.567Z,45.87
2019-03-25T07:12:18.344Z,28.87
2019-03-25T07:15:29.250Z,27.20
2019-03-25T07:18:38.756Z,41.27
2019-03-25T07:21:47.326Z,32.10
2019-03-25T07:24:55.793Z,28.53
2019-03-25T07:28:04.430Z,40.57
2019-03-25T07:31:13.006Z,30.27
2019-03-25T07:34:21.512Z,25.63
2019-03-25T07:37:30.175Z,26.20
2019-03-25T07:40:38.738Z,30.57
2019-03-25T07:43:47.289Z,23.30
2019-03-25T07:46:55.847Z,21.30
2019-03-25T07:50:04.585Z,24.87
2019-03-25T07:53:13.180Z,42.30
2019-03-25T07:56:21.742Z,39.73
2019-03-25T07:59:30.268Z,26.77
2019-03-25T08:02:38.837Z,36.17
2019-03-25T08:05:47.437Z,21.07
2019-03-25T08:09:03.814Z,21.30
2019-03-25T08:12:06.530Z,21.70
2019-03-25T08:15:16.152Z,28.63
2019-03-25T08:18:24.828Z,24.93
2019-03-25T08:21:33.596Z,28.23
2019-03-25T08:24:42.156Z,24.80
2019-03-25T08:27:59.438Z,20.20
2019-03-25T08:31:01.296Z,22.77
2019-03-25T08:34:09.889Z,21.90
2019-03-25T08:37:18.562Z,18.77
2019-03-25T08:40:27.147Z,22.80
2019-03-25T08:43:35.799Z,25.37
2019-03-25T08:46:44.322Z,23.00
2019-03-25T08:49:52.830Z,68.70
2019-03-25T08:53:01.330Z,24.57
2019-03-25T08:56:09.939Z,18.10
2019-03-25T08:59:18.747Z,29.10
2019-03-25T09:02:27.364Z,24.50
2019-03-25T09:05:35.890Z,17.83
2019-03-25T09:08:44.419Z,25.40
2019-03-25T09:11:52.932Z,25.90
2019-03-25T09:15:01.502Z,18.30
2019-03-25T09:18:10.105Z,24.00
2019-03-25T09:21:18.657Z,74.10
2019-03-25T09:24:27.165Z,65.47
2019-03-25T09:27:35.720Z,19.80
2019-03-25T09:31:22.318Z,40.23
2019-03-25T09:34:30.850Z,19.23
2019-03-25T09:37:39.718Z,18.87
2019-03-25T09:40:48.334Z,43.17
2019-03-25T09:43:56.920Z,20.53
2019-03-25T09:47:05.468Z,22.10
2019-03-25T09:50:14.129Z,43.93
2019-03-25T09:53:23.926Z,50.20
2019-03-25T09:56:32.561Z,33.33
2019-03-25T09:59:41.326Z,41.00
2019-03-25T10:02:49.935Z,33.57
2019-03-25T10:05:59.120Z,50.73
2019-03-25T10:09:11.450Z,25.63
2019-03-25T10:12:20.056Z,74.87
2019-03-25T10:15:28.586Z,25.77
2019-03-25T10:18:37.200Z,20.50
2019-03-25T10:21:45.807Z,22.30
2019-03-25T10:24:54.308Z,48.23
2019-03-25T10:28:02.840Z,18.13
2019-03-25T10:31:11.385Z,19.20
2019-03-25T10:34:19.921Z,18.63
2019-03-25T10:37:28.459Z,17.77
2019-03-25T10:40:37.096Z,24.03
2019-03-25T10:43:45.716Z,18.80
2019-03-25T10:46:54.306Z,21.50
2019-03-25T10:50:02.904Z,24.17
2019-03-25T10:53:11.518Z,21.23
2019-03-25T10:56:20.179Z,23.00
2019-03-25T10:59:28.681Z,24.73
2019-03-25T11:02:37.337Z,19.23
2019-03-25T11:05:47.129Z,21.33
2019-03-25T11:08:55.660Z,22.70
2019-03-25T11:12:04.646Z,23.07
2019-03-25T11:15:13.627Z,30.37
2019-03-25T11:18:22.155Z,27.07
2019-03-25T11:21:30.668Z,23.67
2019-03-25T11:24:39.384Z,35.67
2019-03-25T11:27:54.326Z,31.43
2019-03-25T11:31:00.011Z,26.13
2019-03-25T11:34:08.636Z,31.63
2019-03-25T11:37:17.171Z,18.37
2019-03-25T11:40:25.852Z,21.30
2019-03-25T11:43:34.596Z,20.80
2019-03-25T11:46:43.650Z,17.90
2019-03-25T11:49:52.868Z,36.03
2019-03-25T11:53:01.466Z,23.37
2019-03-25T11:56:10.056Z,18.53
2019-03-25T11:59:19.098Z,16.07
2019-03-25T12:02:27.758Z,24.83
2019-03-25T12:05:36.394Z,27.73
2019-03-25T12:08:45.015Z,20.20
2019-03-25T12:11:53.648Z,25.30
2019-03-25T12:15:02.254Z,30.30
2019-03-25T12:18:10.904Z,23.50
2019-03-25T12:21:19.447Z,26.30
2019-03-25T12:24:28.020Z,30.93
2019-03-25T12:27:37.786Z,44.83
2019-03-25T12:30:46.396Z,29.27
2019-03-25T12:33:54.949Z,31.43
2019-03-25T12:37:03.551Z,37.97
2019-03-25T12:40:12.316Z,36.60
2019-03-25T12:43:21.086Z,31.77
2019-03-25T12:46:29.919Z,35.90
2019-03-25T12:49:38.513Z,45.37
2019-03-25T12:52:48.212Z,66.53
2019-03-25T12:55:56.928Z,34.20
2019-03-25T12:59:05.599Z,30.27
2019-03-25T13:02:14.130Z,29.30
2019-03-25T13:05:22.799Z,35.47
2019-03-25T13:08:33.384Z,32.83
2019-03-25T13:11:41.901Z,34.57
2019-03-25T13:14:51.565Z,32.13
2019-03-25T13:18:00.297Z,39.40
2019-03-25T13:21:10.267Z,37.30
2019-03-25T13:24:18.865Z,24.13
2019-03-25T13:27:27.417Z,42.63
2019-03-25T13:30:36.300Z,28.37
2019-03-25T13:33:44.978Z,30.07
2019-03-25T13:36:54.248Z,31.63
2019-03-25T13:40:03.812Z,25.80
2019-03-25T13:43:12.421Z,24.70
2019-03-25T13:46:21.104Z,23.93
2019-03-25T13:49:29.663Z,29.80
2019-03-25T13:52:38.214Z,28.93
2019-03-25T13:55:47.107Z,27.70
2019-03-25T13:58:56.126Z,22.50
2019-03-25T14:02:06.745Z,23.50
2019-03-25T14:05:15.350Z,25.63
2019-03-25T14:08:24.003Z,26.67
2019-03-25T14:11:32.641Z,26.83
2019-03-25T14:14:41.569Z,26.70
2019-03-25T14:17:50.177Z,20.87
2019-03-25T14:20:58.737Z,17.87
2019-03-25T14:24:08.378Z,18.33
2019-03-25T14:27:16.907Z,17.13
2019-03-25T14:30:25.432Z,48.30
2019-03-25T14:33:33.964Z,31.40
2019-03-25T14:36:42.502Z,26.60
2019-03-25T14:39:51.269Z,35.20
2019-03-25T14:42:59.799Z,24.13
2019-03-25T14:46:08.383Z,23.23
2019-03-25T14:49:17.001Z,28.53
2019-03-25T14:52:25.617Z,19.43
2019-03-25T14:55:34.681Z,23.33
2019-03-25T14:58:43.289Z,17.87
2019-03-25T15:01:51.828Z,28.63
2019-03-25T15:05:00.358Z,20.03
2019-03-25T15:08:08.990Z,28.57
2019-03-25T15:11:17.599Z,20.83
2019-03-25T15:14:26.096Z,33.53
2019-03-25T15:17:34.783Z,28.43
2019-03-25T15:20:44.194Z,21.17
2019-03-25T15:23:53.865Z,34.17
2019-03-25T15:27:04.300Z,26.87
2019-03-25T15:30:13.475Z,40.67
2019-03-25T15:33:22.009Z,49.07
2019-03-25T15:36:30.570Z,48.47
2019-03-25T15:39:46.600Z,31.90
2019-03-25T15:42:50.979Z,20.67
2019-03-25T15:46:00.056Z,12.30
2019-03-25T15:49:08.680Z,8.17
2019-03-25T15:52:17.284Z,17.10
2019-03-25T15:55:25.989Z,10.63
2019-03-25T15:58:34.563Z,11.50
2019-03-25T16:01:43.679Z,16.53
2019-03-25T16:04:53.630Z,14.80
2019-03-25T16:08:02.217Z,18.33
2019-03-25T16:11:10.895Z,16.80
2019-03-25T16:14:19.547Z,16.53
2019-03-25T16:17:29.275Z,16.13
2019-03-25T16:20:39.077Z,16.80
2019-03-25T16:23:47.745Z,11.70
2019-03-25T16:26:56.461Z,15.50
2019-03-25T16:30:05.387Z,23.03
2019-03-25T16:33:15.199Z,26.77
2019-03-25T16:36:23.826Z,32.27
2019-03-25T16:39:32.721Z,24.03
2019-03-25T16:42:41.343Z,18.93
2019-03-25T16:45:49.975Z,20.30
2019-03-25T16:48:59.089Z,20.87
2019-03-25T16:52:08.228Z,28.50
2019-03-25T17:00:28.291Z,32.80
2019-03-25T17:03:36.907Z,108.00
2019-03-25T17:06:45.838Z,55.23
2019-03-25T17:09:58.677Z,55.30
2019-03-25T17:13:07.324Z,55.73
2019-03-25T17:16:16.001Z,50.95
2019-03-25T17:19:24.608Z,35.63
2019-03-25T17:22:53.189Z,22.40
2019-03-25T17:26:02.034Z,37.17
2019-03-25T17:29:10.761Z,70.17
2019-03-25T17:32:21.870Z,37.87
2019-03-25T17:35:30.467Z,87.40
2019-03-25T17:38:39.123Z,106.97
2019-03-25T17:41:47.749Z,132.27
2019-03-25T17:44:56.320Z,71.07
2019-03-25T17:48:04.973Z,31.00
2019-03-25T17:51:14.802Z,105.83
2019-03-25T17:54:23.444Z,49.20
2019-03-25T17:57:32.136Z,33.13
2019-03-25T18:01:32.078Z,21.43
2019-03-25T18:04:37.262Z,36.20
2019-03-25T18:07:46.021Z,25.77
2019-03-25T18:10:54.492Z,45.80
2019-03-25T18:14:03.021Z,74.83
2019-03-25T18:17:11.562Z,20.23
2019-03-25T18:20:20.551Z,22.10
2019-03-25T18:23:29.499Z,18.77
2019-03-25T18:26:39.399Z,21.37
2019-03-25T18:29:48.401Z,25.33
2019-03-25T18:32:58.203Z,42.07
2019-03-25T18:36:07.333Z,36.80
2019-03-25T18:39:15.992Z,37.53
2019-03-25T18:42:25.102Z,35.63
2019-03-25T18:45:34.809Z,35.17
2019-03-25T18:48:43.489Z,43.20
2019-03-25T18:51:56.065Z,38.50
2019-03-25T18:55:06.583Z,42.07
2019-03-25T18:58:18.151Z,30.10
2019-03-25T19:01:29.572Z,40.58
2019-03-25T19:04:43.173Z,38.80
2019-03-25T19:07:54.087Z,36.00
2019-03-25T19:11:04.306Z,42.37
2019-03-25T19:14:13.973Z,35.97
2019-03-25T19:17:24.130Z,47.30
2019-03-25T19:20:32.663Z,41.70
2019-03-25T19:23:42.274Z,44.80
2019-03-25T19:26:50.885Z,39.93
2019-03-25T19:29:59.673Z,45.87
2019-03-25T19:33:08.254Z,48.33
2019-03-25T19:36:19.732Z,51.10
2019-03-25T19:39:28.591Z,46.47
2019-03-25T19:42:39.863Z,37.97
2019-03-25T19:45:48.812Z,42.97
2019-03-25T19:48:58.164Z,37.83
2019-03-25T19:52:09.355Z,38.47
2019-03-25T19:55:18.119Z,43.17
2019-03-25T19:58:26.893Z,42.23
2019-03-25T20:01:36.365Z,46.93
2019-03-25T20:04:45.101Z,45.00
2019-03-25T20:07:53.897Z,42.80
2019-03-25T20:11:02.722Z,38.43
2019-03-25T20:14:12.111Z,38.67
2019-03-25T20:17:21.149Z,47.40
2019-03-25T20:20:29.955Z,53.13
2019-03-25T20:23:38.510Z,45.10
2019-03-25T20:26:47.362Z,51.97
2019-03-25T20:29:56.047Z,45.37
2019-03-25T20:33:04.923Z,51.90
2019-03-25T20:36:13.607Z,52.17
2019-03-25T20:39:22.239Z,42.90
2019-03-25T20:42:30.850Z,45.20
2019-03-25T20:45:39.906Z,47.73
2019-03-25T20:48:48.531Z,48.20
2019-03-25T20:51:57.183Z,44.97
2019-03-25T20:55:06.416Z,52.27
2019-03-25T20:58:16.165Z,66.40
2019-03-25T21:01:24.944Z,55.30
2019-03-25T21:04:33.966Z,61.33
2019-03-25T21:07:42.632Z,62.87
2019-03-25T21:10:51.328Z,64.20
2019-03-25T21:13:59.939Z,65.00
2019-03-25T21:17:08.564Z,55.30
2019-03-25T21:20:17.242Z,69.50
2019-03-25T21:23:25.857Z,51.03
2019-03-25T21:26:35.552Z,49.50
2019-03-25T21:29:44.158Z,63.70
2019-03-25T21:32:58.099Z,94.03
2019-03-25T21:36:03.020Z,69.33
2019-03-25T21:39:11.580Z,57.90
2019-03-25T21:42:20.294Z,59.07
2019-03-25T21:45:28.910Z,56.53
2019-03-25T21:48:39.880Z,49.67
2019-03-25T21:51:47.737Z,46.90
2019-03-25T21:54:56.308Z,43.77
2019-03-25T21:58:04.995Z,56.93
2019-03-25T22:01:13.629Z,67.93
2019-03-25T22:04:22.299Z,53.40
2019-03-25T22:07:30.952Z,49.37
2019-03-25T22:10:42.748Z,62.77
2019-03-25T22:13:49.765Z,63.20
2019-03-25T22:16:58.453Z,57.40
2019-03-25T22:20:09.107Z,60.60
2019-03-25T22:23:17.733Z,49.27
2019-03-25T22:26:26.407Z,55.47
2019-03-25T22:29:34.939Z,56.50
2019-03-25T22:32:43.685Z,48.50
2019-03-25T22:35:52.323Z,41.57
2019-03-25T22:39:00.907Z,37.40
2019-03-25T22:42:10.351Z,36.57
2019-03-25T22:45:27.718Z,35.93
2019-03-25T22:48:36.315Z,32.60
2019-03-25T22:51:44.998Z,32.00
2019-03-25T22:54:53.539Z,35.57
2019-03-25T22:58:02.123Z,36.00
2019-03-25T23:01:10.929Z,39.87
2019-03-25T23:04:19.651Z,36.20
2019-03-25T23:07:28.168Z,27.00
2019-03-25T23:10:36.954Z,33.33
2019-03-25T23:13:45.520Z,29.30
2019-03-25T23:16:54.043Z,31.80
2019-03-25T23:20:02.614Z,25.40
2019-03-25T23:23:11.173Z,22.23
2019-03-25T23:26:19.781Z,30.30
2019-03-25T23:29:31.247Z,27.73
2019-03-25T23:32:38.735Z,32.60
2019-03-25T23:35:47.367Z,38.97
2019-03-25T23:38:55.973Z,33.87
2019-03-25T23:42:04.561Z,38.53
2019-03-25T23:45:14.785Z,43.73
2019-03-25T23:48:23.371Z,47.80
2019-03-25T23:51:31.965Z,54.23
2019-03-25T23:54:40.517Z,48.07
2019-03-25T23:57:49.097Z,40.50
